createdAt,value
2023-05-08T00:02:14.584Z,29.03
2023-05-08T00:04:42.399Z,34.80
2023-05-08T00:07:10.185Z,36.70
2023-05-08T00:09:39.256Z,39.07
2023-05-08T00:12:07.184Z,35.67
2023-05-08T00:14:35.088Z,37.27
2023-05-08T00:17:05.338Z,36.10
2023-05-08T00:19:33.163Z,40.23
2023-05-08T00:22:01.212Z,39.77
2023-05-08T00:24:28.960Z,39.57
2023-05-08T00:26:58.106Z,37.37
2023-05-08T00:29:25.894Z,38.97
2023-05-08T00:31:53.803Z,42.20
2023-05-08T00:34:21.637Z,41.40
2023-05-08T00:36:49.389Z,40.97
2023-05-08T00:39:17.322Z,40.80
2023-05-08T00:41:45.105Z,39.47
2023-05-08T00:44:14.378Z,36.80
2023-05-08T00:46:42.821Z,40.90
2023-05-08T00:49:13.244Z,39.87
2023-05-08T00:51:42.373Z,38.50
2023-05-08T00:54:10.607Z,40.00
2023-05-08T00:56:39.163Z,39.67
2023-05-08T00:59:10.995Z,39.80
2023-05-08T01:01:41.852Z,40.60
2023-05-08T01:04:09.788Z,40.20
2023-05-08T01:06:38.056Z,39.23
2023-05-08T01:09:05.906Z,40.13
2023-05-08T01:11:38.893Z,40.03
2023-05-08T01:14:13.700Z,39.63
2023-05-08T01:16:47.201Z,42.23
2023-05-08T01:19:49.742Z,40.23
2023-05-08T01:22:32.523Z,38.47
2023-05-08T01:25:40.342Z,38.27
2023-05-08T01:28:28.705Z,37.43
2023-05-08T01:31:13.041Z,34.20
2023-05-08T01:33:49.335Z,40.20
2023-05-08T01:36:24.762Z,40.43
2023-05-08T01:39:02.133Z,35.73
2023-05-08T01:41:32.848Z,38.10
2023-05-08T01:44:11.759Z,38.83
2023-05-08T01:46:39.585Z,40.53
2023-05-08T01:49:12.436Z,41.40
2023-05-08T01:51:44.761Z,37.53
2023-05-08T01:54:16.176Z,39.60
2023-05-08T01:56:45.785Z,40.87
2023-05-08T01:59:17.259Z,42.70
2023-05-08T02:01:47.276Z,41.63
2023-05-08T02:04:17.571Z,42.90
2023-05-08T02:06:45.828Z,43.37
2023-05-08T02:09:14.283Z,43.80
2023-05-08T02:11:45.583Z,52.07
2023-05-08T02:14:15.885Z,48.07
2023-05-08T02:16:45.555Z,51.93
2023-05-08T02:19:15.923Z,47.63
2023-05-08T02:21:46.619Z,57.50
2023-05-08T02:24:15.425Z,51.00
2023-05-08T02:26:45.107Z,46.33
2023-05-08T02:29:13.057Z,45.80
2023-05-08T02:31:42.630Z,44.27
2023-05-08T02:34:12.052Z,46.60
2023-05-08T02:36:40.836Z,44.93
2023-05-08T02:39:14.912Z,47.70
2023-05-08T02:41:43.312Z,48.60
2023-05-08T02:44:11.324Z,48.57
2023-05-08T02:46:50.319Z,52.87
2023-05-08T02:49:28.828Z,54.87
2023-05-08T02:52:04.992Z,50.73
2023-05-08T02:54:43.377Z,86.93
2023-05-08T02:57:19.379Z,64.77
2023-05-08T02:59:52.654Z,87.83
2023-05-08T03:02:29.701Z,90.70
2023-05-08T03:05:04.417Z,68.63
2023-05-08T03:07:39.178Z,57.30
2023-05-08T03:10:13.271Z,56.13
2023-05-08T03:12:44.553Z,67.57
2023-05-08T03:15:17.233Z,65.30
2023-05-08T03:17:47.332Z,81.53
2023-05-08T03:20:18.922Z,49.53
2023-05-08T03:22:48.696Z,48.93
2023-05-08T03:25:20.252Z,38.73
2023-05-08T03:27:50.237Z,46.00
2023-05-08T03:30:18.990Z,50.30
2023-05-08T03:32:47.628Z,39.67
2023-05-08T03:35:17.624Z,27.47
2023-05-08T03:37:45.701Z,25.33
2023-05-08T03:40:14.036Z,30.97
2023-05-08T03:42:44.408Z,35.67
2023-05-08T03:45:14.812Z,29.13
2023-05-08T03:47:44.416Z,36.23
2023-05-08T03:50:12.680Z,30.93
2023-05-08T03:52:40.706Z,29.27
2023-05-08T03:55:09.586Z,44.33
2023-05-08T03:57:46.976Z,39.57
2023-05-08T04:00:20.784Z,31.90
2023-05-08T04:02:53.877Z,35.73
2023-05-08T04:05:26.975Z,38.97
2023-05-08T04:08:01.745Z,30.33
2023-05-08T04:10:33.389Z,26.03
2023-05-08T04:13:08.186Z,27.53
2023-05-08T04:15:40.479Z,28.87
2023-05-08T04:18:11.205Z,31.87
2023-05-08T04:20:41.559Z,28.70
2023-05-08T04:23:10.520Z,26.43
2023-05-08T04:25:40.941Z,28.80
2023-05-08T04:28:10.907Z,27.83
2023-05-08T04:30:38.717Z,25.63
2023-05-08T04:33:07.207Z,26.70
2023-05-08T04:35:35.515Z,26.10
2023-05-08T04:38:03.952Z,26.57
2023-05-08T04:40:31.762Z,29.90
2023-05-08T04:42:59.651Z,26.83
2023-05-08T04:45:28.793Z,26.70
2023-05-08T04:47:56.642Z,27.77
2023-05-08T04:50:24.526Z,27.20
2023-05-08T04:52:52.268Z,27.53
2023-05-08T04:55:20.144Z,28.00
2023-05-08T04:57:47.873Z,29.07
2023-05-08T05:00:16.632Z,26.00
2023-05-08T05:02:45.828Z,27.90
2023-05-08T05:05:13.923Z,32.63
2023-05-08T05:07:41.963Z,30.70
2023-05-08T05:10:10.574Z,31.07
2023-05-08T05:12:39.166Z,35.70
2023-05-08T05:15:08.290Z,28.83
2023-05-08T05:17:36.267Z,32.37
2023-05-08T05:20:08.680Z,32.33
2023-05-08T05:22:36.503Z,28.27
2023-05-08T05:25:04.436Z,32.23
2023-05-08T05:27:32.225Z,34.53
2023-05-08T05:29:59.981Z,31.43
2023-05-08T05:32:27.842Z,33.80
2023-05-08T05:34:55.671Z,31.07
2023-05-08T05:37:25.018Z,39.03
2023-05-08T05:39:52.832Z,39.23
2023-05-08T05:42:20.547Z,45.63
2023-05-08T05:44:48.306Z,39.03
2023-05-08T05:47:16.225Z,37.33
2023-05-08T05:49:46.896Z,39.33
2023-05-08T05:52:14.718Z,39.63
2023-05-08T05:54:43.984Z,32.57
2023-05-08T05:57:13.275Z,25.47
2023-05-08T05:59:41.430Z,26.73
2023-05-08T06:02:10.592Z,31.50
2023-05-08T06:04:38.494Z,36.90
2023-05-08T06:07:06.341Z,31.80
2023-05-08T06:09:34.124Z,37.70
2023-05-08T06:12:03.245Z,38.53
2023-05-08T06:14:31.049Z,37.37
2023-05-08T06:16:59.977Z,38.77
2023-05-08T06:19:28.658Z,33.43
2023-05-08T06:21:56.715Z,33.67
2023-05-08T06:24:24.556Z,38.73
2023-05-08T06:26:52.269Z,35.90
2023-05-08T06:29:22.050Z,32.53
2023-05-08T06:31:49.913Z,36.43
2023-05-08T06:34:17.685Z,37.53
2023-05-08T06:36:45.438Z,38.33
2023-05-08T06:39:13.520Z,38.37
2023-05-08T06:41:41.437Z,37.37
2023-05-08T06:44:09.208Z,38.50
2023-05-08T06:46:38.378Z,37.30
2023-05-08T06:49:06.166Z,38.30
2023-05-08T06:51:35.543Z,38.33
2023-05-08T06:54:05.501Z,38.30
2023-05-08T06:56:33.276Z,37.57
2023-05-08T06:59:08.497Z,40.83
2023-05-08T07:01:38.415Z,44.90
2023-05-08T07:04:06.299Z,45.80
2023-05-08T07:06:34.270Z,44.60
2023-05-08T07:09:02.039Z,45.37
2023-05-08T07:11:29.778Z,48.17
2023-05-08T07:13:57.536Z,44.50
2023-05-08T07:16:25.341Z,47.03
2023-05-08T07:18:54.568Z,53.80
2023-05-08T07:21:22.441Z,47.77
2023-05-08T07:23:51.749Z,53.93
2023-05-08T07:26:19.614Z,55.80
2023-05-08T07:28:47.617Z,55.50
2023-05-08T07:31:15.644Z,52.10
2023-05-08T07:33:43.649Z,56.07
2023-05-08T07:36:12.835Z,64.10
2023-05-08T07:38:40.608Z,64.20
2023-05-08T07:41:08.602Z,66.13
2023-05-08T07:43:36.992Z,69.03
2023-05-08T07:46:04.928Z,70.13
2023-05-08T07:48:32.748Z,69.77
2023-05-08T07:51:00.493Z,69.30
2023-05-08T07:53:29.600Z,58.57
2023-05-08T07:55:57.357Z,59.70
2023-05-08T07:58:25.262Z,57.40
2023-05-08T08:00:53.742Z,59.10
2023-05-08T08:03:21.673Z,55.23
2023-05-08T08:05:49.536Z,60.33
2023-05-08T08:08:17.316Z,56.67
2023-05-08T08:10:46.547Z,47.67
2023-05-08T08:13:14.337Z,41.87
2023-05-08T08:15:42.310Z,50.07
2023-05-08T08:18:10.326Z,52.27
2023-05-08T08:20:38.729Z,45.13
2023-05-08T08:23:06.553Z,47.37
2023-05-08T08:25:34.275Z,41.87
2023-05-08T08:28:03.391Z,41.53
2023-05-08T08:30:31.233Z,40.73
2023-05-08T08:33:02.214Z,36.40
2023-05-08T08:35:30.440Z,35.77
2023-05-08T08:37:58.363Z,37.13
2023-05-08T08:40:26.426Z,34.10
2023-05-08T08:42:54.231Z,33.23
2023-05-08T08:45:23.675Z,26.60
2023-05-08T08:47:53.746Z,25.63
2023-05-08T08:50:23.586Z,27.40
2023-05-08T08:52:57.704Z,26.57
2023-05-08T08:55:27.349Z,21.87
2023-05-08T08:58:04.332Z,22.43
2023-05-08T09:00:34.159Z,19.67
2023-05-08T09:03:02.632Z,20.33
2023-05-08T09:05:31.577Z,18.57
2023-05-08T09:08:00.436Z,20.20
2023-05-08T09:10:28.619Z,17.00
2023-05-08T09:12:56.629Z,22.37
2023-05-08T09:15:24.693Z,27.67
2023-05-08T09:17:54.006Z,28.07
2023-05-08T09:20:22.546Z,29.13
2023-05-08T09:22:50.628Z,30.80
2023-05-08T09:25:19.198Z,33.77
2023-05-08T09:27:47.114Z,34.07
2023-05-08T09:30:15.589Z,33.87
2023-05-08T09:32:44.873Z,34.30
2023-05-08T09:35:14.512Z,35.37
2023-05-08T09:37:44.254Z,32.53
2023-05-08T09:40:16.943Z,29.27
2023-05-08T09:42:44.872Z,31.07
2023-05-08T09:45:13.299Z,29.00
2023-05-08T09:47:49.317Z,27.70
2023-05-08T09:50:18.773Z,24.33
2023-05-08T09:52:48.381Z,23.03
2023-05-08T09:55:16.275Z,26.07
2023-05-08T09:57:54.369Z,27.13
2023-05-08T10:00:23.065Z,26.23
2023-05-08T10:02:59.504Z,29.70
2023-05-08T10:05:31.826Z,31.13
2023-05-08T10:08:01.778Z,24.20
2023-05-08T10:10:30.975Z,26.43
2023-05-08T10:13:00.070Z,28.80
2023-05-08T10:15:31.935Z,24.17
2023-05-08T10:18:05.825Z,24.93
2023-05-08T10:20:36.271Z,21.47
2023-05-08T10:23:06.499Z,23.90
2023-05-08T10:25:36.428Z,21.00
2023-05-08T10:28:14.328Z,20.43
2023-05-08T10:30:48.732Z,17.77
2023-05-08T10:33:21.101Z,13.80
2023-05-08T10:35:50.913Z,13.70
2023-05-08T10:38:19.169Z,12.60
2023-05-08T10:40:47.378Z,11.23
2023-05-08T10:43:17.128Z,16.13
2023-05-08T10:45:45.577Z,25.03
2023-05-08T10:48:34.142Z,22.73
2023-05-08T10:51:09.480Z,17.70
2023-05-08T10:53:41.617Z,17.07
2023-05-08T10:56:09.586Z,20.30
2023-05-08T10:58:39.188Z,23.80
2023-05-08T11:01:17.662Z,25.80
2023-05-08T11:03:47.580Z,29.53
2023-05-08T11:06:17.382Z,28.00
2023-05-08T11:08:48.770Z,29.67
2023-05-08T11:11:31.513Z,32.70
2023-05-08T11:14:11.574Z,31.03
2023-05-08T11:17:05.287Z,33.57
2023-05-08T11:19:33.277Z,31.40
2023-05-08T11:22:33.148Z,31.03
2023-05-08T11:25:03.965Z,25.67
2023-05-08T11:27:56.510Z,25.93
2023-05-08T11:30:27.068Z,24.97
2023-05-08T11:32:59.652Z,24.63
2023-05-08T11:35:48.358Z,23.63
2023-05-08T11:38:19.603Z,25.47
2023-05-08T11:40:50.499Z,23.27
2023-05-08T11:43:27.157Z,22.10
2023-05-08T11:45:55.702Z,24.83
2023-05-08T11:48:24.187Z,27.00
2023-05-08T11:50:52.539Z,23.87
2023-05-08T11:53:21.973Z,27.73
2023-05-08T11:55:56.874Z,26.67
2023-05-08T11:58:24.764Z,23.47
2023-05-08T12:00:52.730Z,27.67
2023-05-08T12:03:23.083Z,28.43
2023-05-08T12:05:54.320Z,24.47
2023-05-08T12:08:25.526Z,26.73
2023-05-08T12:10:54.749Z,28.47
2023-05-08T12:13:24.636Z,31.43
2023-05-08T12:15:54.458Z,33.67
2023-05-08T12:18:23.368Z,35.97
2023-05-08T12:20:55.285Z,33.63
2023-05-08T12:23:24.667Z,40.80
2023-05-08T12:25:55.387Z,42.13
2023-05-08T12:28:24.035Z,32.78
2023-05-08T12:30:52.170Z,41.43
2023-05-08T12:33:21.277Z,38.53
2023-05-08T12:35:49.110Z,43.90
2023-05-08T12:38:16.906Z,49.17
2023-05-08T12:40:49.158Z,47.63
2023-05-08T12:43:17.182Z,44.03
2023-05-08T12:45:45.025Z,46.17
2023-05-08T12:48:15.502Z,46.47
2023-05-08T12:50:44.609Z,47.93
2023-05-08T12:53:16.120Z,47.63
2023-05-08T12:55:53.931Z,48.17
2023-05-08T12:58:25.951Z,50.90
2023-05-08T13:00:55.034Z,51.83
2023-05-08T13:03:25.738Z,59.67
2023-05-08T13:05:54.741Z,55.80
2023-05-08T13:08:31.069Z,53.93
2023-05-08T13:11:00.878Z,59.27
2023-05-08T13:13:31.722Z,51.47
2023-05-08T13:16:03.349Z,54.80
2023-05-08T13:18:31.159Z,61.10
2023-05-08T13:20:59.626Z,53.43
2023-05-08T13:23:27.497Z,53.50
2023-05-08T13:25:55.353Z,55.50
2023-05-08T13:28:24.595Z,57.53
2023-05-08T13:30:52.338Z,54.27
2023-05-08T13:33:20.101Z,47.83
2023-05-08T13:35:47.874Z,51.13
2023-05-08T13:38:15.626Z,50.50
2023-05-08T13:40:43.376Z,46.67
2023-05-08T13:43:11.201Z,47.47
2023-05-08T13:45:40.405Z,53.03
2023-05-08T13:48:08.503Z,51.13
2023-05-08T13:50:36.244Z,57.60
2023-05-08T13:53:04.773Z,58.53
2023-05-08T13:55:33.162Z,52.13
2023-05-08T13:58:00.978Z,47.13
2023-05-08T14:00:28.912Z,49.90
2023-05-08T14:02:58.170Z,44.60
2023-05-08T14:05:25.964Z,40.67
2023-05-08T14:07:54.053Z,43.20
2023-05-08T14:10:22.073Z,47.57
2023-05-08T14:12:49.901Z,45.90
2023-05-08T14:15:17.693Z,48.77
2023-05-08T14:17:45.620Z,43.90
2023-05-08T14:20:15.095Z,43.83
2023-05-08T14:22:42.872Z,42.90
2023-05-08T14:25:11.484Z,48.37
2023-05-08T14:27:39.412Z,45.37
2023-05-08T14:30:08.685Z,45.73
2023-05-08T14:32:36.540Z,50.00
2023-05-08T14:35:04.369Z,47.93
2023-05-08T14:37:33.550Z,46.33
2023-05-08T14:40:01.337Z,45.87
2023-05-08T14:42:29.172Z,47.80
2023-05-08T14:44:57.032Z,45.17
2023-05-08T14:47:24.929Z,41.20
2023-05-08T14:49:53.722Z,42.37
2023-05-08T14:52:21.516Z,44.83
2023-05-08T14:54:53.392Z,46.97
2023-05-08T14:57:21.783Z,50.23
2023-05-08T14:59:54.975Z,47.00
2023-05-08T15:02:23.535Z,44.17
2023-05-08T15:04:51.423Z,42.00
2023-05-08T15:07:19.206Z,46.73
2023-05-08T15:09:47.951Z,47.40
2023-05-08T15:12:17.187Z,44.97
2023-05-08T15:14:45.168Z,42.90
2023-05-08T15:17:12.944Z,46.27
2023-05-08T15:19:40.906Z,39.13
2023-05-08T15:22:08.658Z,41.43
2023-05-08T15:24:36.461Z,40.33
2023-05-08T15:27:04.571Z,38.20
2023-05-08T15:29:33.907Z,30.67
2023-05-08T15:32:01.696Z,21.57
2023-05-08T15:34:32.594Z,18.77
2023-05-08T15:37:00.796Z,16.17
2023-05-08T15:39:28.558Z,16.13
2023-05-08T15:41:56.380Z,16.03
2023-05-08T15:44:26.603Z,14.97
2023-05-08T15:46:58.004Z,16.47
2023-05-08T15:49:27.157Z,14.13
2023-05-08T15:51:55.556Z,17.00
2023-05-08T15:54:23.635Z,19.87
2023-05-08T15:56:51.564Z,16.17
2023-05-08T15:59:19.418Z,15.57
2023-05-08T16:01:47.334Z,17.40
2023-05-08T16:04:16.578Z,15.70
2023-05-08T16:06:45.541Z,17.27
2023-05-08T16:09:13.242Z,16.57
2023-05-08T16:11:41.118Z,16.00
2023-05-08T16:14:08.907Z,15.80
2023-05-08T16:16:36.877Z,18.43
2023-05-08T16:19:04.719Z,18.10
2023-05-08T16:21:34.122Z,19.43
2023-05-08T16:24:01.998Z,19.13
2023-05-08T16:26:29.806Z,18.00
2023-05-08T16:28:57.672Z,18.30
2023-05-08T16:31:25.581Z,17.53
2023-05-08T16:33:53.350Z,17.37
2023-05-08T16:36:21.174Z,18.53
2023-05-08T16:38:50.871Z,20.17
2023-05-08T16:41:18.561Z,18.97
2023-05-08T16:43:46.246Z,18.83
2023-05-08T16:46:14.047Z,19.30
2023-05-08T16:48:42.298Z,20.23
2023-05-08T16:51:10.100Z,20.07
2023-05-08T16:53:37.919Z,20.07
2023-05-08T16:56:07.544Z,20.10
2023-05-08T16:58:35.455Z,21.57
2023-05-08T17:01:03.258Z,22.13
2023-05-08T17:03:31.266Z,21.67
2023-05-08T17:05:59.104Z,22.33
2023-05-08T17:08:26.968Z,22.43
2023-05-08T17:10:54.838Z,22.07
2023-05-08T17:13:24.274Z,24.20
2023-05-08T17:15:52.201Z,22.13
2023-05-08T17:18:20.592Z,20.60
2023-05-08T17:20:48.388Z,21.37
2023-05-08T17:23:16.139Z,23.57
2023-05-08T17:25:43.956Z,24.63
2023-05-08T17:28:11.694Z,20.77
2023-05-08T17:30:41.041Z,23.63
2023-05-08T17:33:08.933Z,22.83
2023-05-08T17:35:36.829Z,22.87
2023-05-08T17:38:04.579Z,19.83
2023-05-08T17:40:32.566Z,19.63
2023-05-08T17:43:00.351Z,23.03
2023-05-08T17:45:28.226Z,20.83
2023-05-08T17:47:57.562Z,22.00
2023-05-08T17:50:25.616Z,20.87
2023-05-08T17:52:53.340Z,20.13
2023-05-08T17:55:21.230Z,18.37
2023-05-08T17:57:48.986Z,17.77
2023-05-08T18:00:17.737Z,20.17
2023-05-08T18:02:45.678Z,23.00
2023-05-08T18:05:15.908Z,21.77
2023-05-08T18:07:43.863Z,20.33
2023-05-08T18:10:12.503Z,21.40
2023-05-08T18:12:40.487Z,23.53
2023-05-08T18:15:09.257Z,21.40
2023-05-08T18:17:37.148Z,23.37
2023-05-08T18:20:07.697Z,22.03
2023-05-08T18:22:36.955Z,21.00
2023-05-08T18:25:05.197Z,20.57
2023-05-08T18:27:34.352Z,22.40
2023-05-08T18:30:02.297Z,23.23
2023-05-08T18:32:30.140Z,22.30
2023-05-08T18:34:58.037Z,21.73
2023-05-08T18:37:25.841Z,22.93
2023-05-08T18:39:55.145Z,16.90
2023-05-08T18:42:22.948Z,18.27
2023-05-08T18:44:50.666Z,18.53
2023-05-08T18:47:18.518Z,20.33
2023-05-08T18:49:46.300Z,18.17
2023-05-08T18:52:14.561Z,16.60
2023-05-08T18:54:42.301Z,16.53
2023-05-08T18:57:11.444Z,17.13
2023-05-08T18:59:39.217Z,17.13
2023-05-08T19:02:07.021Z,17.50
2023-05-08T19:04:34.795Z,17.30
2023-05-08T19:07:02.602Z,18.50
2023-05-08T19:09:30.486Z,13.70
2023-05-08T19:11:58.283Z,14.13
2023-05-08T19:14:27.416Z,19.03
2023-05-08T19:16:58.260Z,15.77
2023-05-08T19:19:26.587Z,16.63
2023-05-08T19:21:54.317Z,24.10
2023-05-08T19:24:24.078Z,18.70
2023-05-08T19:26:51.949Z,19.93
2023-05-08T19:29:19.651Z,19.17
2023-05-08T19:31:48.820Z,19.40
2023-05-08T19:34:16.914Z,13.83
2023-05-08T19:36:44.763Z,14.73
2023-05-08T19:39:13.727Z,14.13
2023-05-08T19:41:41.523Z,9.20
2023-05-08T19:44:09.347Z,8.67
2023-05-08T19:46:37.339Z,11.57
2023-05-08T19:49:06.759Z,9.53
2023-05-08T19:51:34.585Z,10.57
2023-05-08T19:54:02.373Z,11.30
2023-05-08T19:56:30.102Z,9.00
2023-05-08T19:58:57.913Z,9.73
2023-05-08T20:01:25.705Z,7.47
2023-05-08T20:03:53.747Z,10.77
2023-05-08T20:06:22.982Z,11.20
2023-05-08T20:08:50.769Z,9.43
2023-05-08T20:11:18.550Z,9.63
2023-05-08T20:13:46.566Z,7.23
2023-05-08T20:16:14.532Z,9.93
2023-05-08T20:18:42.330Z,9.23
2023-05-08T20:21:10.121Z,9.07
2023-05-08T20:23:41.211Z,7.77
2023-05-08T20:26:09.321Z,10.03
2023-05-08T20:28:37.139Z,8.97
2023-05-08T20:31:04.984Z,6.40
2023-05-08T20:33:32.766Z,9.07
2023-05-08T20:36:00.508Z,8.50
2023-05-08T20:38:28.365Z,8.87
2023-05-08T20:41:00.842Z,10.43
2023-05-08T20:43:28.914Z,4.80
2023-05-08T20:45:56.724Z,13.33
2023-05-08T20:48:24.617Z,6.70
2023-05-08T20:50:52.389Z,7.70
2023-05-08T20:53:20.525Z,11.80
2023-05-08T20:55:48.439Z,5.20
2023-05-08T20:58:17.632Z,6.80
2023-05-08T21:00:45.607Z,7.60
2023-05-08T21:03:13.338Z,7.00
2023-05-08T21:05:41.080Z,6.27
2023-05-08T21:08:08.789Z,6.63
2023-05-08T21:10:36.721Z,5.13
2023-05-08T21:13:05.520Z,6.63
2023-05-08T21:15:35.244Z,8.07
2023-05-08T21:18:03.082Z,7.33
2023-05-08T21:20:32.762Z,10.33
2023-05-08T21:23:00.872Z,8.13
2023-05-08T21:25:28.658Z,7.70
2023-05-08T21:27:56.409Z,8.43
2023-05-08T21:30:24.140Z,7.37
2023-05-08T21:32:53.332Z,9.77
2023-05-08T21:35:21.484Z,8.47
2023-05-08T21:37:53.246Z,8.57
2023-05-08T21:40:22.757Z,9.40
2023-05-08T21:42:50.512Z,7.70
2023-05-08T21:45:18.309Z,8.60
2023-05-08T21:47:46.174Z,8.40
2023-05-08T21:50:15.305Z,11.13
2023-05-08T21:52:43.156Z,11.77
2023-05-08T21:55:11.469Z,8.30
2023-05-08T21:57:39.579Z,12.30
2023-05-08T22:00:09.008Z,13.47
2023-05-08T22:02:36.864Z,8.07
2023-05-08T22:05:04.865Z,10.87
2023-05-08T22:07:34.168Z,11.73
2023-05-08T22:10:01.996Z,13.37
2023-05-08T22:12:29.718Z,8.73
2023-05-08T22:14:57.459Z,13.23
2023-05-08T22:17:25.273Z,11.40
2023-05-08T22:19:53.064Z,11.80
2023-05-08T22:22:20.893Z,15.23
2023-05-08T22:24:50.088Z,13.93
2023-05-08T22:27:17.945Z,15.43
2023-05-08T22:29:45.739Z,15.73
2023-05-08T22:32:13.884Z,15.83
2023-05-08T22:34:41.687Z,16.93
2023-05-08T22:37:09.388Z,19.60
2023-05-08T22:39:37.184Z,18.63
2023-05-08T22:42:06.447Z,20.70
2023-05-08T22:44:34.226Z,20.67
2023-05-08T22:47:02.351Z,16.73
2023-05-08T22:49:30.442Z,19.10
2023-05-08T22:51:58.235Z,22.60
2023-05-08T22:54:26.015Z,17.93
2023-05-08T22:56:53.767Z,20.50
2023-05-08T22:59:25.122Z,17.27
2023-05-08T23:01:52.978Z,22.63
2023-05-08T23:04:21.584Z,23.27
2023-05-08T23:06:49.428Z,21.17
2023-05-08T23:09:17.151Z,20.43
2023-05-08T23:11:44.879Z,21.23
2023-05-08T23:14:12.678Z,24.23
2023-05-08T23:16:41.869Z,25.93
2023-05-08T23:19:10.151Z,25.50
2023-05-08T23:21:37.966Z,25.60
2023-05-08T23:24:06.387Z,24.27
2023-05-08T23:26:34.162Z,28.37
2023-05-08T23:29:02.215Z,21.97
2023-05-08T23:31:30.022Z,26.30
2023-05-08T23:33:59.137Z,21.43
2023-05-08T23:36:27.027Z,20.60
2023-05-08T23:38:54.763Z,21.13
2023-05-08T23:41:22.729Z,18.60
2023-05-08T23:43:50.931Z,20.87
2023-05-08T23:46:18.816Z,20.07
2023-05-08T23:48:46.721Z,19.23
2023-05-08T23:51:15.826Z,17.97
2023-05-08T23:53:43.556Z,20.13
2023-05-08T23:56:11.298Z,23.17
2023-05-08T23:58:39.036Z,17.00
